TAF and METAR

METAR for Sleipner Oil Platform

ENSL 171950Z AUTO 01023KT 9999NDV FEW023/// 04/M01 Q1011 W04/S5
Report created 17. jan 20:50
report generated by an automatic observation system. wind 23 knots from N (010°) visibility > 10km some clouds (~25% cover) at 2300 feet Temperature 4° with dewpoint at -1° (Humidity 69.85%) Pressure 1011 hPa
No TAF available for Sleipner Oil Platform